sensor_id;sensor_type;location;lat;lon;timestamp;pressure;altitude;pressure_sealevel;temperature;humidity
13974;BME280;7060;43.770;4.008;2023-01-15T00:02:27;101271.59;;;6.81;74.15
13974;BME280;7060;43.770;4.008;2023-01-15T00:04:59;101264.47;;;6.82;74.14
13974;BME280;7060;43.770;4.008;2023-01-15T00:07:31;101268.19;;;6.79;74.40
13974;BME280;7060;43.770;4.008;2023-01-15T00:10:00;101266.16;;;6.83;74.00
13974;BME280;7060;43.770;4.008;2023-01-15T00:12:29;101260.84;;;6.83;74.34
13974;BME280;7060;43.770;4.008;2023-01-15T00:14:59;101257.34;;;6.82;73.98
13974;BME280;7060;43.770;4.008;2023-01-15T00:17:27;101262.44;;;6.86;74.64
13974;BME280;7060;43.770;4.008;2023-01-15T00:19:56;101262.22;;;6.89;73.71
13974;BME280;7060;43.770;4.008;2023-01-15T00:22:25;101265.09;;;6.86;74.45
13974;BME280;7060;43.770;4.008;2023-01-15T00:24:55;101261.69;;;6.84;75.18
13974;BME280;7060;43.770;4.008;2023-01-15T00:27:43;101260.84;;;6.83;75.19
13974;BME280;7060;43.770;4.008;2023-01-15T00:30:17;101258.59;;;6.90;75.18
13974;BME280;7060;43.770;4.008;2023-01-15T00:32:46;101262.72;;;6.94;75.47
13974;BME280;7060;43.770;4.008;2023-01-15T00:35:19;101249.44;;;6.94;74.92
13974;BME280;7060;43.770;4.008;2023-01-15T00:37:51;101246.06;;;6.92;75.15
13974;BME280;7060;43.770;4.008;2023-01-15T15:30:24;101076.97;;;10.47;58.25
13974;BME280;7060;43.770;4.008;2023-01-15T15:32:54;101083.59;;;10.52;58.09
13974;BME280;7060;43.770;4.008;2023-01-15T15:35:26;101086.13;;;10.54;57.35
13974;BME280;7060;43.770;4.008;2023-01-15T15:37:56;101085.28;;;10.53;57.44
13974;BME280;7060;43.770;4.008;2023-01-15T15:40:35;101084.69;;;10.50;57.47
13974;BME280;7060;43.770;4.008;2023-01-15T15:43:11;101085.13;;;10.45;57.91
13974;BME280;7060;43.770;4.008;2023-01-15T15:45:59;101077.22;;;10.34;57.80
13974;BME280;7060;43.770;4.008;2023-01-15T15:49:00;101093.69;;;10.39;57.96
13974;BME280;7060;43.770;4.008;2023-01-15T15:51:33;101093.25;;;10.34;58.00
13974;BME280;7060;43.770;4.008;2023-01-15T15:54:10;101028.56;;;9.91;58.02
13974;BME280;7060;43.770;4.008;2023-01-15T15:56:45;101088.69;;;10.15;57.06
13974;BME280;7060;43.770;4.008;2023-01-15T15:59:29;101082.31;;;10.07;55.45
13974;BME280;7060;43.770;4.008;2023-01-15T16:02:11;101088.38;;;10.09;54.92
13974;BME280;7060;43.770;4.008;2023-01-15T16:04:46;101019.59;;;9.71;53.71
13974;BME280;7060;43.770;4.008;2023-01-15T16:07:21;101087.78;;;10.05;51.86
13974;BME280;7060;43.770;4.008;2023-01-15T16:09:55;101081.28;;;9.98;50.66
13974;BME280;7060;43.770;4.008;2023-01-15T16:12:26;101076.91;;;9.97;50.89
13974;BME280;7060;43.770;4.008;2023-01-15T16:14:57;101078.19;;;9.93;49.53
13974;BME280;7060;43.770;4.008;2023-01-15T16:17:27;101081.84;;;9.92;48.98
13974;BME280;7060;43.770;4.008;2023-01-15T16:19:56;101082.22;;;9.88;49.79
13974;BME280;7060;43.770;4.008;2023-01-15T16:22:25;101078.13;;;9.83;49.23
13974;BME280;7060;43.770;4.008;2023-01-15T16:24:55;101014.09;;;9.42;49.51
13974;BME280;7060;43.770;4.008;2023-01-15T16:27:28;101073.06;;;9.80;49.40
13974;BME280;7060;43.770;4.008;2023-01-15T16:29:59;101042.81;;;9.49;49.05
13974;BME280;7060;43.770;4.008;2023-01-15T16:32:30;101085.22;;;9.73;48.49
13974;BME280;7060;43.770;4.008;2023-01-15T16:35:05;101090.69;;;9.72;48.70
13974;BME280;7060;43.770;4.008;2023-01-15T16:37:36;101086.75;;;9.66;48.75
13974;BME280;7060;43.770;4.008;2023-01-15T16:40:06;101086.75;;;9.66;48.80
13974;BME280;7060;43.770;4.008;2023-01-15T16:42:37;101089.22;;;9.58;49.67
13974;BME280;7060;43.770;4.008;2023-01-15T16:45:19;100912.66;;;8.49;49.87
13974;BME280;7060;43.770;4.008;2023-01-15T16:48:10;100904.47;;;8.41;49.77
13974;BME280;7060;43.770;4.008;2023-01-15T16:50:40;101088.56;;;9.45;50.92
13974;BME280;7060;43.770;4.008;2023-01-15T16:53:29;101093.59;;;9.38;50.79
13974;BME280;7060;43.770;4.008;2023-01-15T16:55:59;101090.97;;;9.27;51.59
13974;BME280;7060;43.770;4.008;2023-01-15T16:58:36;101094.75;;;9.25;52.03
13974;BME280;7060;43.770;4.008;2023-01-15T17:01:24;101070.47;;;8.96;52.21
13974;BME280;7060;43.770;4.008;2023-01-15T17:03:56;101035.19;;;8.60;52.94
13974;BME280;7060;43.770;4.008;2023-01-15T17:06:26;101097.25;;;8.94;53.14
13974;BME280;7060;43.770;4.008;2023-01-15T17:08:57;101073.47;;;8.59;54.15
13974;BME280;7060;43.770;4.008;2023-01-15T17:11:28;101049.19;;;8.41;54.49
13974;BME280;7060;43.770;4.008;2023-01-15T17:14:10;101100.13;;;8.59;54.54
13974;BME280;7060;43.770;4.008;2023-01-15T17:17:14;100796.97;;;6.57;55.24
13974;BME280;7060;43.770;4.008;2023-01-15T17:19:48;101123.78;;;8.30;55.45
13974;BME280;7060;43.770;4.008;2023-01-15T17:22:22;101108.91;;;8.16;56.32
13974;BME280;7060;43.770;4.008;2023-01-15T17:24:54;101113.13;;;8.08;57.33
13974;BME280;7060;43.770;4.008;2023-01-15T17:27:25;101125.38;;;7.99;57.28
13974;BME280;7060;43.770;4.008;2023-01-15T17:29:55;101118.47;;;7.97;57.94
13974;BME280;7060;43.770;4.008;2023-01-15T17:32:29;101085.38;;;7.66;58.23
13974;BME280;7060;43.770;4.008;2023-01-15T17:35:01;100975.31;;;6.98;57.76
13974;BME280;7060;43.770;4.008;2023-01-15T17:37:29;101130.91;;;7.74;57.83
13974;BME280;7060;43.770;4.008;2023-01-15T17:40:00;100980.94;;;6.82;58.04
13974;BME280;7060;43.770;4.008;2023-01-15T17:42:30;100961.94;;;6.65;58.17
13974;BME280;7060;43.770;4.008;2023-01-15T17:45:00;101112.69;;;7.45;58.39
13974;BME280;7060;43.770;4.008;2023-01-15T17:47:31;101140.97;;;7.46;58.53
13974;BME280;7060;43.770;4.008;2023-01-15T17:50:02;101055.38;;;6.94;59.00
13974;BME280;7060;43.770;4.008;2023-01-15T17:52:31;101006.06;;;6.55;58.88
13974;BME280;7060;43.770;4.008;2023-01-15T17:55:01;101130.41;;;7.10;59.10
13974;BME280;7060;43.770;4.008;2023-01-15T17:57:49;101067.94;;;6.68;58.87
13974;BME280;7060;43.770;4.008;2023-01-15T18:00:36;101124.25;;;6.86;59.67
13974;BME280;7060;43.770;4.008;2023-01-15T18:03:24;100920.06;;;5.73;59.24
13974;BME280;7060;43.770;4.008;2023-01-15T18:06:13;101151.59;;;6.99;59.26
13974;BME280;7060;43.770;4.008;2023-01-15T18:08:45;100921.13;;;5.58;59.73
13974;BME280;7060;43.770;4.008;2023-01-15T18:11:15;101152.94;;;6.80;59.81
13974;BME280;7060;43.770;4.008;2023-01-15T18:13:45;100886.41;;;5.11;59.92
13974;BME280;7060;43.770;4.008;2023-01-15T18:16:14;100953.72;;;5.34;59.96
13974;BME280;7060;43.770;4.008;2023-01-15T18:18:43;101033.06;;;5.63;59.51
13974;BME280;7060;43.770;4.008;2023-01-15T18:21:14;100932.44;;;5.10;60.40
13974;BME280;7060;43.770;4.008;2023-01-15T18:23:45;101088.31;;;5.94;61.31
13974;BME280;7060;43.770;4.008;2023-01-15T18:26:13;100870.16;;;4.53;62.08
13974;BME280;7060;43.770;4.008;2023-01-15T18:28:42;100788.44;;;3.96;61.90
13974;BME280;7060;43.770;4.008;2023-01-15T18:31:12;101139.94;;;6.03;62.51
13974;BME280;7060;43.770;4.008;2023-01-15T18:33:46;101137.91;;;5.94;63.01
13974;BME280;7060;43.770;4.008;2023-01-15T18:36:19;101116.16;;;5.76;63.12
13974;BME280;7060;43.770;4.008;2023-01-15T18:38:47;101044.69;;;5.09;64.39
13974;BME280;7060;43.770;4.008;2023-01-15T18:41:20;101149.69;;;5.77;64.60
13974;BME280;7060;43.770;4.008;2023-01-15T18:44:11;101109.66;;;5.55;64.17
13974;BME280;7060;43.770;4.008;2023-01-15T18:46:59;100960.97;;;4.67;64.08
13974;BME280;7060;43.770;4.008;2023-01-15T18:49:31;101164.34;;;5.95;63.56
13974;BME280;7060;43.770;4.008;2023-01-15T18:52:03;101158.38;;;5.92;63.87
13974;BME280;7060;43.770;4.008;2023-01-15T18:54:50;101164.97;;;5.86;64.31
13974;BME280;7060;43.770;4.008;2023-01-15T18:57:19;101114.44;;;5.62;64.10
13974;BME280;7060;43.770;4.008;2023-01-15T19:00:01;101151.06;;;5.83;64.11
13974;BME280;7060;43.770;4.008;2023-01-15T19:02:29;101133.22;;;5.72;64.34
13974;BME280;7060;43.770;4.008;2023-01-15T19:04:59;101141.38;;;5.69;64.61
13974;BME280;7060;43.770;4.008;2023-01-15T19:07:29;101076.53;;;5.22;64.21
13974;BME280;7060;43.770;4.008;2023-01-15T19:09:59;101000.50;;;4.83;64.95
13974;BME280;7060;43.770;4.008;2023-01-15T19:12:29;101067.94;;;5.19;64.25
13974;BME280;7060;43.770;4.008;2023-01-15T19:14:58;101130.66;;;5.58;64.21
13974;BME280;7060;43.770;4.008;2023-01-15T19:17:48;101123.25;;;5.50;64.98
13974;BME280;7060;43.770;4.008;2023-01-15T19:20:37;101094.69;;;5.28;65.17
13974;BME280;7060;43.770;4.008;2023-01-15T19:23:08;101132.91;;;5.51;64.71
13974;BME280;7060;43.770;4.008;2023-01-15T19:25:41;101117.63;;;5.55;64.75
13974;BME280;7060;43.770;4.008;2023-01-15T19:28:16;101013.19;;;4.92;64.77
13974;BME280;7060;43.770;4.008;2023-01-15T19:30:46;100936.66;;;4.48;64.76
13974;BME280;7060;43.770;4.008;2023-01-15T19:33:36;101008.94;;;4.90;65.02
13974;BME280;7060;43.770;4.008;2023-01-15T19:36:06;100915.00;;;4.29;64.92
13974;BME280;7060;43.770;4.008;2023-01-15T19:38:36;101094.44;;;5.19;65.38
13974;BME280;7060;43.770;4.008;2023-01-15T19:41:12;101087.53;;;5.16;65.47
13974;BME280;7060;43.770;4.008;2023-01-15T19:43:58;101034.75;;;4.86;65.78
13974;BME280;7060;43.770;4.008;2023-01-15T19:46:44;100955.44;;;4.31;65.85
13974;BME280;7060;43.770;4.008;2023-01-15T19:49:34;101033.22;;;4.69;65.73
13974;BME280;7060;43.770;4.008;2023-01-15T19:52:21;100825.06;;;3.48;66.01
13974;BME280;7060;43.770;4.008;2023-01-15T19:55:06;100916.41;;;3.81;66.12
13974;BME280;7060;43.770;4.008;2023-01-15T19:57:40;101072.13;;;4.82;66.06
13974;BME280;7060;43.770;4.008;2023-01-15T20:00:12;100998.75;;;4.30;66.51
13974;BME280;7060;43.770;4.008;2023-01-15T20:02:43;101000.91;;;4.37;66.29
13974;BME280;7060;43.770;4.008;2023-01-15T20:05:14;101040.66;;;4.50;66.23
13974;BME280;7060;43.770;4.008;2023-01-15T20:07:44;100774.97;;;3.05;66.23
13974;BME280;7060;43.770;4.008;2023-01-15T20:10:24;101007.50;;;4.44;66.37
13974;BME280;7060;43.770;4.008;2023-01-15T20:12:57;101075.59;;;4.69;66.06
13974;BME280;7060;43.770;4.008;2023-01-15T20:15:43;101033.72;;;4.35;65.94
13974;BME280;7060;43.770;4.008;2023-01-15T20:18:13;101065.22;;;4.52;66.21
13974;BME280;7060;43.770;4.008;2023-01-15T20:20:47;101047.03;;;4.33;66.37
13974;BME280;7060;43.770;4.008;2023-01-15T20:23:37;101017.84;;;4.21;66.49
13974;BME280;7060;43.770;4.008;2023-01-15T20:26:33;101017.69;;;4.09;66.30
13974;BME280;7060;43.770;4.008;2023-01-15T20:29:01;100962.59;;;3.75;66.61
13974;BME280;7060;43.770;4.008;2023-01-15T20:31:31;100992.09;;;3.96;66.45
13974;BME280;7060;43.770;4.008;2023-01-15T20:34:10;101028.09;;;4.13;66.82
13974;BME280;7060;43.770;4.008;2023-01-15T20:36:38;100962.53;;;3.62;66.73
13974;BME280;7060;43.770;4.008;2023-01-15T20:39:08;100778.47;;;2.49;66.95
13974;BME280;7060;43.770;4.008;2023-01-15T20:41:40;100901.25;;;3.13;67.18
13974;BME280;7060;43.770;4.008;2023-01-15T20:44:30;100909.00;;;3.16;68.10
13974;BME280;7060;43.770;4.008;2023-01-15T20:47:16;100821.72;;;2.61;68.52
13974;BME280;7060;43.770;4.008;2023-01-15T20:50:04;101027.09;;;3.72;68.43
13974;BME280;7060;43.770;4.008;2023-01-15T20:52:37;100985.44;;;3.48;67.84
13974;BME280;7060;43.770;4.008;2023-01-15T20:55:09;100810.13;;;2.35;67.79
13974;BME280;7060;43.770;4.008;2023-01-15T20:57:40;101022.28;;;3.65;67.84
13974;BME280;7060;43.770;4.008;2023-01-15T21:00:11;101016.44;;;3.60;68.39
13974;BME280;7060;43.770;4.008;2023-01-15T21:02:41;101026.44;;;3.55;68.64
13974;BME280;7060;43.770;4.008;2023-01-15T21:05:10;100984.78;;;3.30;68.92
13974;BME280;7060;43.770;4.008;2023-01-15T21:07:48;100902.84;;;2.73;67.93
13974;BME280;7060;43.770;4.008;2023-01-15T21:10:18;101006.59;;;3.33;69.04
13974;BME280;7060;43.770;4.008;2023-01-15T21:12:52;101000.66;;;3.30;68.82
13974;BME280;7060;43.770;4.008;2023-01-15T21:15:21;100965.81;;;3.09;69.23
13974;BME280;7060;43.770;4.008;2023-01-15T21:17:54;100941.47;;;3.04;69.18
13974;BME280;7060;43.770;4.008;2023-01-15T21:20:23;100979.06;;;3.37;68.86
13974;BME280;7060;43.770;4.008;2023-01-15T21:22:52;100906.38;;;3.02;68.91
13974;BME280;7060;43.770;4.008;2023-01-15T21:25:21;100977.44;;;3.35;68.91
13974;BME280;7060;43.770;4.008;2023-01-15T21:28:03;100983.94;;;3.29;69.07
13974;BME280;7060;43.770;4.008;2023-01-15T21:30:33;100987.72;;;3.25;69.24
13974;BME280;7060;43.770;4.008;2023-01-15T21:33:09;100921.06;;;2.92;69.20
13974;BME280;7060;43.770;4.008;2023-01-15T21:35:39;100990.00;;;3.31;69.26
13974;BME280;7060;43.770;4.008;2023-01-15T21:38:10;100925.97;;;2.98;69.52
13974;BME280;7060;43.770;4.008;2023-01-15T21:40:38;100922.59;;;3.10;69.59
13974;BME280;7060;43.770;4.008;2023-01-15T21:43:09;100867.22;;;2.94;69.30
13974;BME280;7060;43.770;4.008;2023-01-15T21:46:00;100874.66;;;3.16;69.33
13974;BME280;7060;43.770;4.008;2023-01-15T21:48:32;100832.56;;;3.13;68.38
13974;BME280;7060;43.770;4.008;2023-01-15T21:51:03;100482.91;;;1.10;68.87
13974;BME280;7060;43.770;4.008;2023-01-15T21:53:33;100729.94;;;2.66;68.52
13974;BME280;7060;43.770;4.008;2023-01-15T21:56:08;100883.50;;;3.58;68.54
13974;BME280;7060;43.770;4.008;2023-01-15T21:58:39;100854.81;;;3.52;68.44
13974;BME280;7060;43.770;4.008;2023-01-15T22:01:10;100858.94;;;3.56;68.74
13974;BME280;7060;43.770;4.008;2023-01-15T22:03:40;100923.22;;;3.97;68.46
13974;BME280;7060;43.770;4.008;2023-01-15T22:06:09;100772.94;;;3.23;68.23
13974;BME280;7060;43.770;4.008;2023-01-15T22:08:38;100734.75;;;3.15;67.58
13974;BME280;7060;43.770;4.008;2023-01-15T22:11:09;100911.91;;;4.22;67.93
13974;BME280;7060;43.770;4.008;2023-01-15T22:13:42;100648.00;;;2.67;68.13
13974;BME280;7060;43.770;4.008;2023-01-15T22:16:13;100888.59;;;4.15;68.45
13974;BME280;7060;43.770;4.008;2023-01-15T22:18:41;100841.19;;;3.85;68.02
13974;BME280;7060;43.770;4.008;2023-01-15T22:21:13;100882.88;;;4.21;67.58
13974;BME280;7060;43.770;4.008;2023-01-15T22:23:43;100885.88;;;4.16;68.19
13974;BME280;7060;43.770;4.008;2023-01-15T22:26:16;100725.19;;;3.26;67.96
13974;BME280;7060;43.770;4.008;2023-01-15T22:28:47;100844.69;;;3.85;67.85
13974;BME280;7060;43.770;4.008;2023-01-15T22:31:18;100788.03;;;3.62;67.65
13974;BME280;7060;43.770;4.008;2023-01-15T22:33:48;100755.03;;;3.41;67.40
13974;BME280;7060;43.770;4.008;2023-01-15T22:36:18;100766.91;;;3.48;67.54
13974;BME280;7060;43.770;4.008;2023-01-15T22:38:49;100852.97;;;3.93;67.54
13974;BME280;7060;43.770;4.008;2023-01-15T22:41:20;100823.69;;;3.69;67.57
13974;BME280;7060;43.770;4.008;2023-01-15T22:44:06;100862.28;;;3.99;67.93
13974;BME280;7060;43.770;4.008;2023-01-15T22:46:37;100873.91;;;3.96;67.87
13974;BME280;7060;43.770;4.008;2023-01-15T22:49:10;100795.91;;;3.50;67.84
13974;BME280;7060;43.770;4.008;2023-01-15T22:51:39;100616.41;;;2.25;67.99
13974;BME280;7060;43.770;4.008;2023-01-15T22:54:08;100849.25;;;3.69;67.81
13974;BME280;7060;43.770;4.008;2023-01-15T22:56:38;100821.44;;;3.36;68.28
13974;BME280;7060;43.770;4.008;2023-01-15T22:59:12;100852.34;;;3.49;68.63
13974;BME280;7060;43.770;4.008;2023-01-15T23:01:42;100851.69;;;3.45;69.25
13974;BME280;7060;43.770;4.008;2023-01-15T23:04:12;100819.50;;;3.38;68.73
13974;BME280;7060;43.770;4.008;2023-01-15T23:06:42;100639.31;;;2.24;68.43
13974;BME280;7060;43.770;4.008;2023-01-15T23:09:13;100790.34;;;2.99;69.04
13974;BME280;7060;43.770;4.008;2023-01-15T23:11:43;100836.16;;;3.26;69.38
13974;BME280;7060;43.770;4.008;2023-01-15T23:14:16;100747.09;;;2.73;69.01
13974;BME280;7060;43.770;4.008;2023-01-15T23:16:46;100316.03;;;0.12;68.69
13974;BME280;7060;43.770;4.008;2023-01-15T23:19:15;100842.97;;;3.16;69.16
13974;BME280;7060;43.770;4.008;2023-01-15T23:21:45;100831.34;;;3.19;68.59
13974;BME280;7060;43.770;4.008;2023-01-15T23:24:14;100727.75;;;2.58;68.90
13974;BME280;7060;43.770;4.008;2023-01-15T23:26:43;100779.63;;;2.73;69.25
13974;BME280;7060;43.770;4.008;2023-01-15T23:29:12;100736.63;;;2.57;69.18
13974;BME280;7060;43.770;4.008;2023-01-15T23:31:43;100765.28;;;2.78;69.15
13974;BME280;7060;43.770;4.008;2023-01-15T23:34:13;100737.19;;;2.62;69.60
13974;BME280;7060;43.770;4.008;2023-01-15T23:36:42;100793.75;;;2.87;69.55
13974;BME280;7060;43.770;4.008;2023-01-15T23:39:11;100755.38;;;2.81;69.83
13974;BME280;7060;43.770;4.008;2023-01-15T23:41:41;100689.41;;;2.53;69.29
13974;BME280;7060;43.770;4.008;2023-01-15T23:44:27;100770.44;;;3.07;69.16
13974;BME280;7060;43.770;4.008;2023-01-15T23:47:15;100701.28;;;2.46;69.09
13974;BME280;7060;43.770;4.008;2023-01-15T23:49:47;100775.63;;;2.95;69.53
13974;BME280;7060;43.770;4.008;2023-01-15T23:52:17;100789.78;;;2.94;69.73
13974;BME280;7060;43.770;4.008;2023-01-15T23:54:56;100794.31;;;2.92;69.14
13974;BME280;7060;43.770;4.008;2023-01-15T23:57:27;100784.13;;;2.86;69.39
